createdAt,value
2022-08-05T00:00:03.188Z,24.8
2022-08-05T00:02:07.532Z,24.8
2022-08-05T00:04:05.156Z,24.7
2022-08-05T00:06:22.229Z,24.7
2022-08-05T00:08:04.626Z,24.6
2022-08-05T00:10:04.499Z,24.7
2022-08-05T00:12:04.140Z,24.8
2022-08-05T00:14:02.468Z,24.6
2022-08-05T00:16:04.122Z,24.6
2022-08-05T00:18:02.614Z,24.6
2022-08-05T00:20:03.182Z,24.5
2022-08-05T00:22:04.480Z,24.6
2022-08-05T00:24:05.129Z,24.5
2022-08-05T00:26:05.366Z,24.4
2022-08-05T00:28:02.233Z,24.3
2022-08-05T00:30:02.452Z,24.4
2022-08-05T00:34:43.150Z,24.3
2022-08-05T00:36:15.326Z,24.3
2022-08-05T00:38:02.508Z,24.4
2022-08-05T00:40:02.292Z,24.3
2022-08-05T00:42:05.503Z,24.1
2022-08-05T00:44:02.877Z,24.1
2022-08-05T00:46:08.351Z,24.2
2022-08-05T00:48:05.122Z,24.1
2022-08-05T00:50:11.279Z,24.1
2022-08-05T00:52:04.265Z,24.1
2022-08-05T00:54:03.210Z,24.2
2022-08-05T00:56:02.923Z,24.3
2022-08-05T00:58:05.814Z,24.3
2022-08-05T01:00:04.516Z,24.5
2022-08-05T01:02:05.755Z,24.5
2022-08-05T01:04:04.226Z,24.4
2022-08-05T01:06:11.343Z,24.1
2022-08-05T01:08:30.005Z,24
2022-08-05T01:12:04.870Z,23.4
2022-08-05T01:14:03.219Z,23.3
2022-08-05T01:16:05.033Z,23.2
2022-08-05T01:18:02.465Z,23.4
2022-08-05T01:20:03.489Z,23.6
2022-08-05T01:26:09.749Z,23.7
2022-08-05T01:28:02.257Z,23.7
2022-08-05T01:30:02.465Z,23.6
2022-08-05T01:32:05.402Z,23.7
2022-08-05T01:34:02.233Z,23.7
2022-08-05T01:36:03.746Z,23.6
2022-08-05T01:38:07.518Z,23.6
2022-08-05T01:40:03.035Z,23.6
2022-08-05T01:42:02.838Z,23.5
2022-08-05T01:44:02.472Z,23.6
2022-08-05T01:46:07.070Z,23.6
2022-08-05T01:48:02.497Z,23.5
2022-08-05T01:52:12.467Z,23.5
2022-08-05T01:54:04.216Z,23.6
2022-08-05T01:56:04.382Z,23.5
2022-08-05T01:58:08.350Z,23.5
2022-08-05T02:00:03.914Z,23.5
2022-08-05T02:04:10.815Z,23.6
2022-08-05T02:06:03.478Z,23.3
2022-08-05T02:08:02.513Z,23.1
2022-08-05T02:10:04.471Z,23.1
2022-08-05T02:12:03.158Z,23
2022-08-05T02:16:06.226Z,23.3
2022-08-05T02:18:29.181Z,23.5
2022-08-05T02:20:05.703Z,23.2
2022-08-05T02:22:02.275Z,23.2
2022-08-05T02:24:02.470Z,23.2
2022-08-05T02:26:04.219Z,23
2022-08-05T02:28:02.966Z,22.6
2022-08-05T02:30:02.503Z,22.3
2022-08-05T02:32:04.676Z,22.2
2022-08-05T02:34:02.944Z,22.4
2022-08-05T02:36:05.800Z,22.9
2022-08-05T02:38:02.634Z,22.8
2022-08-05T02:42:05.697Z,23
2022-08-05T02:44:06.353Z,23
2022-08-05T02:48:12.851Z,23
2022-08-05T02:50:02.490Z,22.8
2022-08-05T02:52:04.213Z,23
2022-08-05T02:54:04.109Z,22.7
2022-08-05T02:58:08.892Z,22.8
2022-08-05T03:00:02.500Z,22.7
2022-08-05T03:02:02.699Z,22.6
2022-08-05T03:04:08.837Z,22.4
2022-08-05T03:06:53.429Z,22.3
2022-08-05T03:08:07.464Z,22.3
2022-08-05T03:10:02.352Z,22.5
2022-08-05T03:12:05.381Z,22.2
2022-08-05T03:14:04.117Z,22
2022-08-05T03:16:02.282Z,21.8
2022-08-05T03:18:08.163Z,22.2
2022-08-05T03:20:02.501Z,22.1
2022-08-05T03:22:02.240Z,22.1
2022-08-05T03:24:02.529Z,21.9
2022-08-05T03:26:04.174Z,22
2022-08-05T03:28:02.626Z,22
2022-08-05T03:30:07.897Z,21.9
2022-08-05T03:32:02.532Z,22
2022-08-05T03:34:02.709Z,22
2022-08-05T03:36:06.591Z,22
2022-08-05T03:40:03.929Z,21.8
2022-08-05T03:42:02.484Z,21.3
2022-08-05T03:44:08.560Z,21.4
2022-08-05T03:46:02.248Z,21.5
2022-08-05T03:48:04.200Z,21.7
2022-08-05T03:50:04.178Z,21.9
2022-08-05T03:52:35.601Z,21.7
2022-08-05T03:55:07.058Z,21.7
2022-08-05T03:56:10.936Z,21.5
2022-08-05T03:58:02.967Z,21.8
2022-08-05T04:00:05.406Z,21.8
2022-08-05T04:02:06.997Z,21.5
2022-08-05T04:04:10.470Z,21.7
2022-08-05T04:06:04.356Z,21.9
2022-08-05T04:12:44.536Z,22
2022-08-05T04:14:43.575Z,22
2022-08-05T04:16:43.516Z,22.1
2022-08-05T04:18:47.563Z,21.9
2022-08-05T04:20:47.159Z,22
2022-08-05T04:22:46.618Z,22.1
2022-08-05T04:24:52.331Z,22
2022-08-05T04:26:49.038Z,22.2
2022-08-05T04:28:50.953Z,22.4
2022-08-05T04:30:47.152Z,22.1
2022-08-05T04:32:46.311Z,22.1
2022-08-05T04:34:47.280Z,22.1
2022-08-05T04:36:49.949Z,22.3
2022-08-05T04:38:50.956Z,21.7
2022-08-05T04:40:47.952Z,21.7
2022-08-05T04:42:47.535Z,22.1
2022-08-05T04:44:45.188Z,22.1
2022-08-05T04:46:46.952Z,22.2
2022-08-05T04:48:47.701Z,22.6
2022-08-05T04:51:02.127Z,22.8
2022-08-05T04:52:44.405Z,22.8
2022-08-05T04:54:44.000Z,22.9
2022-08-05T04:56:48.053Z,22.9
2022-08-05T04:58:45.312Z,22.8
2022-08-05T05:00:50.628Z,22.9
2022-08-05T05:02:48.565Z,23.3
2022-08-05T05:04:47.954Z,23.2
2022-08-05T05:06:49.176Z,23.5
2022-08-05T05:08:45.706Z,23.4
2022-08-05T05:10:47.254Z,23.6
2022-08-05T05:12:47.958Z,23.6
2022-08-05T05:14:49.637Z,23.4
2022-08-05T05:16:44.341Z,23.2
2022-08-05T05:19:02.719Z,23.4
2022-08-05T05:20:49.756Z,23.4
2022-08-05T05:22:48.802Z,23.2
2022-08-05T05:24:56.602Z,23.1
2022-08-05T05:26:46.539Z,23.1
2022-08-05T05:28:46.226Z,23
2022-08-05T05:30:49.515Z,23.1
2022-08-05T05:32:44.424Z,23
2022-08-05T05:34:47.545Z,23
2022-08-05T05:36:44.388Z,22.9
2022-08-05T05:38:45.325Z,22.9
2022-08-05T05:40:50.150Z,22.8
2022-08-05T05:42:47.869Z,22.8
2022-08-05T05:44:46.037Z,22.7
2022-08-05T05:46:46.691Z,22.6
2022-08-05T05:48:48.955Z,22.5
2022-08-05T05:50:44.625Z,22.5
2022-08-05T05:52:48.036Z,22.5
2022-08-05T05:54:50.040Z,22.5
2022-08-05T05:56:45.833Z,22.4
2022-08-05T05:58:47.573Z,22.5
2022-08-05T06:00:47.289Z,22.5
2022-08-05T06:02:48.014Z,22.6
2022-08-05T06:04:44.018Z,23
2022-08-05T06:08:49.144Z,24.4
2022-08-05T06:10:49.284Z,25.5
2022-08-05T06:12:48.543Z,24.6
2022-08-05T06:14:45.796Z,24.5
2022-08-05T06:16:48.051Z,25.8
2022-08-05T06:18:47.709Z,24.1
2022-08-05T06:20:47.821Z,23.3
2022-08-05T06:22:46.255Z,23.2
2022-08-05T06:24:48.376Z,23.3
2022-08-05T06:26:51.147Z,23
2022-08-05T06:28:47.963Z,23.2
2022-08-05T06:32:46.809Z,23.3
2022-08-05T06:34:43.995Z,23.6
2022-08-05T06:36:57.761Z,23.8
2022-08-05T06:38:47.133Z,23.3
2022-08-05T06:40:44.577Z,23
2022-08-05T06:42:44.333Z,22.9
2022-08-05T06:44:49.226Z,23
2022-08-05T06:46:46.589Z,23.8
2022-08-05T06:48:54.690Z,23.3
2022-08-05T06:50:48.059Z,24.3
2022-08-05T06:52:58.935Z,25.6
2022-08-05T06:54:46.659Z,25.9
2022-08-05T06:56:54.585Z,24.6
2022-08-05T06:58:44.100Z,25.1
2022-08-05T07:00:48.147Z,24.9
2022-08-05T07:02:48.470Z,25
2022-08-05T07:04:45.699Z,24.7
2022-08-05T07:06:46.233Z,24.9
2022-08-05T07:08:47.440Z,25.2
2022-08-05T07:10:52.248Z,25.6
2022-08-05T07:12:49.057Z,25.6
2022-08-05T07:14:47.067Z,25.6
2022-08-05T07:17:57.613Z,25.3
2022-08-05T07:20:45.375Z,25.4
2022-08-05T07:22:48.333Z,25.5
2022-08-05T07:24:52.566Z,25.8
2022-08-05T07:26:47.103Z,26.5
2022-08-05T07:28:45.457Z,26.7
2022-08-05T07:30:47.491Z,26.2
2022-08-05T07:32:50.803Z,26
2022-08-05T07:34:44.022Z,26.4
2022-08-05T07:36:45.739Z,26.1
2022-08-05T07:38:48.924Z,26.2
2022-08-05T07:40:46.753Z,26.2
2022-08-05T07:42:45.374Z,26.7
2022-08-05T07:44:46.273Z,26.7
2022-08-05T07:46:45.911Z,26.8
2022-08-05T07:49:03.216Z,26.9
2022-08-05T07:50:44.409Z,26.9
2022-08-05T07:52:45.362Z,27
2022-08-05T07:54:47.738Z,27.1
2022-08-05T07:57:00.993Z,27.6
2022-08-05T07:58:55.216Z,27.5
2022-08-05T08:00:45.834Z,27.5
2022-08-05T08:03:13.491Z,27.5
2022-08-05T08:04:44.740Z,27.6
2022-08-05T08:06:47.934Z,27.7
2022-08-05T08:08:48.391Z,27.7
2022-08-05T08:10:48.875Z,27.7
2022-08-05T08:12:48.409Z,27.8
2022-08-05T08:14:48.414Z,27.6
2022-08-05T08:16:51.295Z,27.3
2022-08-05T08:18:50.047Z,27.6
2022-08-05T08:21:00.681Z,27.3
2022-08-05T08:22:48.487Z,27.1
2022-08-05T08:24:50.945Z,27.4
2022-08-05T08:26:45.741Z,26.9
2022-08-05T08:28:55.338Z,27.1
2022-08-05T08:30:50.117Z,27.6
2022-08-05T08:32:45.389Z,27.8
2022-08-05T08:34:47.663Z,27.9
2022-08-05T08:36:47.525Z,27.9
2022-08-05T08:38:53.157Z,27.9
2022-08-05T08:40:51.572Z,27.9
2022-08-05T08:42:46.680Z,28
2022-08-05T08:45:21.706Z,28.1
2022-08-05T08:46:47.969Z,28.1
2022-08-05T08:49:03.230Z,28.1
2022-08-05T08:50:52.949Z,28.3
2022-08-05T08:52:51.608Z,28.3
2022-08-05T08:54:43.624Z,28.4
2022-08-05T08:56:49.385Z,28.3
2022-08-05T08:58:47.555Z,28.4
2022-08-05T09:00:45.465Z,28.5
2022-08-05T09:02:44.425Z,28.6
2022-08-05T09:04:47.664Z,28.8
2022-08-05T09:06:49.920Z,28.8
2022-08-05T09:08:46.648Z,28.7
2022-08-05T09:10:48.052Z,28.9
2022-08-05T09:12:46.073Z,28.9
2022-08-05T09:14:54.890Z,29.1
2022-08-05T09:16:48.665Z,29.2
2022-08-05T09:18:45.428Z,29.2
2022-08-05T09:20:44.451Z,29.3
2022-08-05T09:22:51.776Z,29.3
2022-08-05T09:24:44.366Z,29.3
2022-08-05T09:26:47.550Z,29.2
2022-08-05T09:28:48.382Z,29.2
2022-08-05T09:30:49.398Z,29.2
2022-08-05T09:32:46.958Z,29.2
2022-08-05T09:34:44.002Z,29.3
2022-08-05T09:36:54.245Z,29.3
2022-08-05T09:38:46.199Z,29.3
2022-08-05T09:40:52.815Z,29.3
2022-08-05T09:42:48.806Z,29.4
2022-08-05T09:44:45.012Z,29.5
2022-08-05T09:46:50.123Z,29.5
2022-08-05T09:48:55.177Z,29.5
2022-08-05T09:50:48.056Z,29.5
2022-08-05T09:52:45.027Z,29.5
2022-08-05T09:54:44.000Z,29.5
2022-08-05T09:56:51.653Z,29.5
2022-08-05T09:58:50.193Z,29.4
2022-08-05T10:00:48.432Z,29.6
2022-08-05T10:02:46.738Z,29.7
2022-08-05T10:04:47.233Z,29.8
2022-08-05T10:06:55.169Z,29.7
2022-08-05T10:08:50.242Z,29.7
2022-08-05T10:10:48.243Z,29.7
2022-08-05T10:12:49.151Z,29.8
2022-08-05T10:14:44.832Z,29.8
2022-08-05T10:16:52.712Z,29.9
2022-08-05T10:18:48.360Z,29.9
2022-08-05T10:20:48.485Z,30
2022-08-05T10:22:48.853Z,30
2022-08-05T10:24:47.754Z,30
2022-08-05T10:26:46.725Z,30
2022-08-05T10:28:46.130Z,29.9
2022-08-05T10:32:49.719Z,29.9
2022-08-05T10:32:51.334Z,29.9
2022-08-05T10:34:47.290Z,30
2022-08-05T10:36:45.776Z,30.1
2022-08-05T10:38:45.387Z,30.1
2022-08-05T10:40:46.321Z,30.1
2022-08-05T10:42:47.316Z,30.2
2022-08-05T10:44:44.996Z,30.1
2022-08-05T10:46:50.813Z,30.1
2022-08-05T10:48:53.097Z,30.2
2022-08-05T10:50:48.567Z,30.1
2022-08-05T10:52:49.692Z,30.1
2022-08-05T10:54:47.057Z,30.2
2022-08-05T10:56:49.382Z,30.3
2022-08-05T10:58:47.959Z,30.3
2022-08-05T11:00:47.146Z,30.3
2022-08-05T11:04:48.011Z,30.3
2022-08-05T11:06:46.815Z,30.4
2022-08-05T11:08:47.449Z,30.5
2022-08-05T11:10:50.135Z,30.5
2022-08-05T11:12:50.654Z,30.7
2022-08-05T11:15:01.598Z,30.7
2022-08-05T11:16:56.051Z,30.4
2022-08-05T11:18:48.093Z,30.4
2022-08-05T11:20:44.645Z,30.5
2022-08-05T11:22:49.813Z,30.6
2022-08-05T11:24:50.834Z,30.7
2022-08-05T11:29:53.036Z,30.5
2022-08-05T11:34:26.197Z,30.4
2022-08-05T11:36:14.510Z,30.5
2022-08-05T11:38:27.493Z,30.7
2022-08-05T11:40:23.009Z,30.7
2022-08-05T11:42:22.277Z,30.7
2022-08-05T11:44:41.043Z,30.6
2022-08-05T11:48:29.907Z,30.7
2022-08-05T11:50:26.010Z,30.7
2022-08-05T11:52:29.122Z,30.7
2022-08-05T11:54:33.046Z,30.8
2022-08-05T11:56:40.540Z,30.9
2022-08-05T11:58:29.466Z,30.9
2022-08-05T12:00:29.204Z,30.7
2022-08-05T12:02:29.987Z,30.7
2022-08-05T12:04:24.585Z,30.5
2022-08-05T12:06:28.070Z,30.7
2022-08-05T12:08:24.621Z,30.7
2022-08-05T12:10:38.356Z,30.9
2022-08-05T12:12:28.920Z,31
2022-08-05T12:14:24.604Z,31
2022-08-05T12:16:28.305Z,31
2022-08-05T12:18:26.602Z,31.1
2022-08-05T12:20:30.776Z,31.2
2022-08-05T12:22:24.607Z,31.2
2022-08-05T12:24:24.724Z,31.3
2022-08-05T12:26:25.962Z,31.3
2022-08-05T12:28:31.052Z,31.4
2022-08-05T12:30:29.068Z,31.5
2022-08-05T12:32:31.372Z,31.5
2022-08-05T12:34:30.771Z,31.5
2022-08-05T12:36:30.640Z,31.5
2022-08-05T12:38:30.153Z,31.6
2022-08-05T12:40:29.818Z,31.5
2022-08-05T12:42:27.772Z,31.4
2022-08-05T12:44:33.552Z,31.4
2022-08-05T12:46:28.142Z,31.2
2022-08-05T12:48:27.875Z,31.1
2022-08-05T12:50:32.733Z,31.1
2022-08-05T12:52:29.014Z,31.1
2022-08-05T12:54:26.444Z,31.1
2022-08-05T12:56:34.791Z,31.2
2022-08-05T12:58:39.515Z,31.3
2022-08-05T13:01:59.192Z,31.4
2022-08-05T13:02:27.189Z,31.4
2022-08-05T13:04:29.955Z,31.5
2022-08-05T13:06:24.630Z,31.5
2022-08-05T13:08:26.925Z,31.3
2022-08-05T13:10:24.596Z,31.3
2022-08-05T13:12:28.997Z,31.3
2022-08-05T13:14:35.856Z,31.4
2022-08-05T13:16:30.513Z,31.4
2022-08-05T13:18:28.526Z,31.6
2022-08-05T13:20:31.962Z,31.6
2022-08-05T13:22:29.629Z,31.6
2022-08-05T13:24:44.856Z,31.6
2022-08-05T13:26:30.016Z,31.5
2022-08-05T13:28:25.926Z,31.4
2022-08-05T13:30:33.212Z,31.4
2022-08-05T13:32:30.719Z,31.3
2022-08-05T13:34:31.305Z,31.3
2022-08-05T13:36:24.609Z,31.3
2022-08-05T13:38:34.158Z,31.4
2022-08-05T13:40:37.211Z,31.5
2022-08-05T13:42:25.781Z,31.5
2022-08-05T13:44:26.782Z,31.6
2022-08-05T13:46:44.177Z,31.6
2022-08-05T13:48:56.910Z,31.6
2022-08-05T13:50:29.222Z,31.7
2022-08-05T13:52:32.263Z,31.8
2022-08-05T13:54:28.008Z,31.8
2022-08-05T13:56:24.625Z,31.8
2022-08-05T13:58:30.221Z,31.8
2022-08-05T14:00:26.725Z,31.8
2022-08-05T14:02:29.747Z,31.8
2022-08-05T14:04:26.557Z,31.7
2022-08-05T14:06:27.183Z,31.8
2022-08-05T14:08:27.569Z,31.7
2022-08-05T14:10:28.299Z,31.8
2022-08-05T14:12:32.388Z,31.8
2022-08-05T14:14:32.360Z,31.7
2022-08-05T14:16:26.998Z,31.8
2022-08-05T14:18:30.858Z,31.8
2022-08-05T14:20:27.286Z,31.8
2022-08-05T14:22:24.925Z,31.8
2022-08-05T14:24:24.622Z,31.8
2022-08-05T14:26:35.946Z,31.8
2022-08-05T14:28:26.677Z,31.8
2022-08-05T14:30:26.499Z,31.8
2022-08-05T14:32:31.840Z,31.8
2022-08-05T14:34:25.298Z,31.8
2022-08-05T14:36:24.627Z,31.8
2022-08-05T14:38:28.001Z,31.8
2022-08-05T14:40:29.976Z,31.8
2022-08-05T14:42:25.049Z,31.7
2022-08-05T14:44:30.087Z,31.7
2022-08-05T14:46:28.074Z,31.6
2022-08-05T14:48:32.840Z,31.6
2022-08-05T14:50:30.488Z,31.6
2022-08-05T14:52:51.466Z,31.7
2022-08-05T14:54:30.435Z,31.7
2022-08-05T14:56:24.650Z,31.6
2022-08-05T14:58:24.641Z,31.6
2022-08-05T15:00:27.844Z,31.7
2022-08-05T15:02:24.698Z,31.6
2022-08-05T15:04:27.242Z,31.6
2022-08-05T15:06:27.849Z,31.6
2022-08-05T15:08:36.667Z,31.6
2022-08-05T15:10:28.585Z,31.6
2022-08-05T15:12:24.667Z,31.6
2022-08-05T15:14:34.116Z,31.6
2022-08-05T15:16:24.895Z,31.6
2022-08-05T15:18:30.009Z,31.6
2022-08-05T15:20:25.005Z,31.6
2022-08-05T15:22:26.776Z,31.6
2022-08-05T15:24:24.670Z,31.6
2022-08-05T15:26:32.483Z,31.6
2022-08-05T15:28:27.483Z,31.6
2022-08-05T15:30:31.507Z,31.6
2022-08-05T15:32:27.345Z,31.5
2022-08-05T15:34:32.739Z,31.5
2022-08-05T15:36:25.581Z,31.5
2022-08-05T15:38:35.150Z,31.5
2022-08-05T15:40:42.532Z,31.4
2022-08-05T15:42:54.975Z,31.5
2022-08-05T15:44:24.722Z,31.5
2022-08-05T15:46:31.951Z,31.3
2022-08-05T15:48:29.114Z,31.3
2022-08-05T15:50:25.139Z,31.3
2022-08-05T15:52:29.727Z,31.2
2022-08-05T15:54:34.337Z,31.2
2022-08-05T15:56:24.683Z,31.1
2022-08-05T15:58:26.696Z,31.1
2022-08-05T16:00:25.860Z,31.2
2022-08-05T16:02:25.363Z,31.2
2022-08-05T16:04:27.692Z,31.1
2022-08-05T16:06:24.674Z,31.1
2022-08-05T16:08:31.761Z,31.1
2022-08-05T16:10:28.617Z,31.1
2022-08-05T16:12:30.092Z,31.1
2022-08-05T16:14:24.519Z,31.1
2022-08-05T16:16:29.649Z,31.1
2022-08-05T16:18:29.136Z,31
2022-08-05T16:20:27.862Z,31
2022-08-05T16:22:33.809Z,31.1
2022-08-05T16:24:39.660Z,31.1
2022-08-05T16:26:26.345Z,31.1
2022-08-05T16:28:24.673Z,31.1
2022-08-05T16:30:26.014Z,31.1
2022-08-05T16:32:28.484Z,31.1
2022-08-05T16:34:30.359Z,31.1
2022-08-05T16:36:30.047Z,31
2022-08-05T16:38:27.965Z,31
2022-08-05T16:40:28.997Z,31
2022-08-05T16:42:31.648Z,31
2022-08-05T16:44:25.196Z,30.9
2022-08-05T16:46:25.060Z,30.9
2022-08-05T16:48:25.094Z,30.9
2022-08-05T16:50:28.506Z,30.9
2022-08-05T16:52:32.757Z,30.9
2022-08-05T16:54:28.802Z,30.8
2022-08-05T16:56:28.182Z,30.8
2022-08-05T16:58:25.953Z,30.8
2022-08-05T17:00:25.883Z,30.8
2022-08-05T17:02:33.534Z,30.8
2022-08-05T17:04:32.485Z,30.8
2022-08-05T17:06:27.987Z,30.7
2022-08-05T17:08:33.704Z,30.7
2022-08-05T17:10:30.391Z,30.7
2022-08-05T17:12:50.195Z,30.7
2022-08-05T17:14:34.705Z,30.7
2022-08-05T17:16:30.031Z,30.7
2022-08-05T17:18:28.363Z,30.7
2022-08-05T17:20:28.828Z,30.7
2022-08-05T17:22:25.897Z,30.7
2022-08-05T17:24:35.262Z,30.7
2022-08-05T17:26:28.319Z,30.7
2022-08-05T17:28:24.704Z,30.7
2022-08-05T17:30:28.123Z,30.7
2022-08-05T17:32:29.551Z,30.5
2022-08-05T17:34:30.310Z,30.4
2022-08-05T17:36:31.713Z,30.4
2022-08-05T17:38:28.319Z,30.4
2022-08-05T17:40:32.078Z,30.3
2022-08-05T17:42:30.020Z,30.2
2022-08-05T17:44:32.438Z,30.1
2022-08-05T17:46:26.918Z,30
2022-08-05T17:48:26.909Z,29.9
2022-08-05T17:50:27.963Z,29.9
2022-08-05T17:52:33.173Z,29.7
2022-08-05T17:54:32.878Z,29.6
2022-08-05T17:56:28.326Z,29.6
2022-08-05T17:58:32.394Z,29.4
2022-08-05T18:00:31.294Z,29.4
2022-08-05T18:02:26.954Z,29.5
2022-08-05T18:04:27.173Z,29.7
2022-08-05T18:06:31.756Z,29.6
2022-08-05T18:08:29.359Z,29.6
2022-08-05T18:10:26.887Z,29.5
2022-08-05T18:12:27.281Z,29.4
2022-08-05T18:14:25.176Z,29.6
2022-08-05T18:16:27.415Z,29.3
2022-08-05T18:18:29.479Z,29.3
2022-08-05T18:20:32.480Z,29.2
2022-08-05T18:22:36.159Z,29.2
2022-08-05T18:24:32.407Z,29.1
2022-08-05T18:26:31.986Z,28.9
2022-08-05T18:28:30.594Z,28.6
2022-08-05T18:30:26.563Z,28.7
2022-08-05T18:32:29.952Z,28.8
2022-08-05T18:34:37.434Z,28.6
2022-08-05T18:36:31.326Z,28.6
2022-08-05T18:38:28.137Z,28.5
2022-08-05T18:40:29.963Z,28.2
2022-08-05T18:42:24.956Z,28.1
2022-08-05T18:44:33.481Z,28
2022-08-05T18:46:28.940Z,28
2022-08-05T18:48:33.062Z,27.8
2022-08-05T18:50:42.503Z,27.7
2022-08-05T18:52:32.787Z,27.5
2022-08-05T18:54:25.566Z,27.3
2022-08-05T18:56:25.287Z,27.2
2022-08-05T18:58:30.349Z,27.1
2022-08-05T19:00:27.335Z,27.1
2022-08-05T19:02:28.975Z,27
2022-08-05T19:04:27.320Z,26.8
2022-08-05T19:06:34.316Z,26.7
2022-08-05T19:08:33.060Z,26.7
2022-08-05T19:10:26.743Z,26.5
2022-08-05T19:12:28.700Z,26.5
2022-08-05T19:14:45.037Z,26.4
2022-08-05T19:16:28.476Z,26.4
2022-08-05T19:18:31.412Z,26.3
2022-08-05T19:20:24.772Z,26.3
2022-08-05T19:22:27.984Z,26.2
2022-08-05T19:24:34.271Z,26.2
2022-08-05T19:26:33.031Z,26.1
2022-08-05T19:28:28.658Z,26.1
2022-08-05T19:30:28.152Z,26
2022-08-05T19:32:32.195Z,26
2022-08-05T19:34:29.526Z,26
2022-08-05T19:36:30.381Z,25.9
2022-08-05T19:38:26.929Z,25.9
2022-08-05T19:40:30.009Z,25.8
2022-08-05T19:42:35.207Z,25.8
2022-08-05T19:44:31.134Z,25.8
2022-08-05T19:46:31.453Z,25.7
2022-08-05T19:48:33.844Z,25.8
2022-08-05T19:50:31.997Z,25.8
2022-08-05T19:52:31.268Z,25.7
2022-08-05T19:54:28.560Z,25.6
2022-08-05T19:56:32.755Z,25.6
2022-08-05T19:58:32.901Z,25.6
2022-08-05T20:00:25.259Z,25.5
2022-08-05T20:02:26.068Z,25.6
2022-08-05T20:04:27.079Z,25.5
2022-08-05T20:06:30.721Z,25.6
2022-08-05T20:08:29.590Z,25.5
2022-08-05T20:10:31.234Z,25.5
2022-08-05T20:12:25.610Z,25.5
2022-08-05T20:14:27.354Z,25.6
2022-08-05T20:16:30.839Z,25.4
2022-08-05T20:18:32.943Z,25.3
2022-08-05T20:20:32.395Z,25.3
2022-08-05T20:22:32.689Z,25.4
2022-08-05T20:24:25.351Z,25.4
2022-08-05T20:26:25.351Z,25.4
2022-08-05T20:28:31.589Z,25.3
2022-08-05T20:30:28.742Z,25.4
2022-08-05T20:32:25.265Z,25.2
2022-08-05T20:34:28.434Z,25.1
2022-08-05T20:36:28.311Z,25
2022-08-05T20:38:35.483Z,25
2022-08-05T20:40:28.051Z,24.9
2022-08-05T20:42:29.824Z,25
2022-08-05T20:44:30.748Z,24.9
2022-08-05T20:46:31.836Z,24.9
2022-08-05T20:48:32.417Z,25
2022-08-05T20:50:25.239Z,25.1
2022-08-05T20:52:31.187Z,25
2022-08-05T20:54:42.588Z,25
2022-08-05T20:56:34.217Z,24.9
2022-08-05T20:58:33.789Z,24.8
2022-08-05T21:02:26.867Z,24.9
2022-08-05T21:04:27.406Z,24.9
2022-08-05T21:06:32.056Z,25
2022-08-05T21:08:35.901Z,24.8
2022-08-05T21:10:31.612Z,24.7
2022-08-05T21:12:25.991Z,24.8
2022-08-05T21:14:26.553Z,24.8
2022-08-05T21:16:30.725Z,24.7
2022-08-05T21:18:28.534Z,24.6
2022-08-05T21:20:33.092Z,24.6
2022-08-05T21:22:27.595Z,24.6
2022-08-05T21:22:58.983Z,24.6
2022-08-05T21:24:59.025Z,24.5
2022-08-05T21:26:59.038Z,24.3
2022-08-05T21:29:03.664Z,24.2
2022-08-05T21:30:58.981Z,23.9
2022-08-05T21:35:08.540Z,23.6
2022-08-05T21:36:58.976Z,23.4
2022-08-05T21:38:59.444Z,23.3
2022-08-05T21:40:59.002Z,23.3
2022-08-05T21:42:59.721Z,23.1
2022-08-05T21:44:59.449Z,23
2022-08-05T21:46:58.977Z,23.1
2022-08-05T21:48:59.812Z,22.8
2022-08-05T21:50:58.985Z,22.8
2022-08-05T21:53:04.390Z,22.6
2022-08-05T21:55:06.120Z,22.6
2022-08-05T21:57:28.289Z,22.7
2022-08-05T21:58:58.994Z,22.6
2022-08-05T22:00:59.045Z,22.4
2022-08-05T22:02:59.366Z,22.1
2022-08-05T22:04:59.749Z,22
2022-08-05T22:06:58.980Z,21.8
2022-08-05T22:08:59.000Z,21.5
2022-08-05T22:10:58.990Z,21.6
2022-08-05T22:13:09.004Z,21.7
2022-08-05T22:14:59.446Z,21.6
2022-08-05T22:18:59.008Z,21.6
2022-08-05T22:20:58.985Z,21.1
2022-08-05T22:22:59.042Z,21.1
2022-08-05T22:24:59.006Z,21.3
2022-08-05T22:26:59.924Z,21.2
2022-08-05T22:28:59.380Z,21.1
2022-08-05T22:31:05.146Z,21.1
2022-08-05T22:35:06.294Z,21.4
2022-08-05T22:36:58.992Z,21.3
2022-08-05T22:40:58.985Z,21.4
2022-08-05T22:42:59.000Z,21.3
2022-08-05T22:44:59.456Z,21.2
2022-08-05T22:46:58.982Z,21.1
2022-08-05T22:48:59.023Z,21.4
2022-08-05T22:51:00.016Z,21.3
2022-08-05T22:52:59.025Z,21.3
2022-08-05T22:54:59.032Z,21.2
2022-08-05T22:56:59.024Z,20.9
2022-08-05T22:58:59.823Z,20.7
2022-08-05T23:00:59.473Z,20.6
2022-08-05T23:05:01.655Z,20.4
2022-08-05T23:06:58.998Z,20.5
2022-08-05T23:09:14.137Z,20.3
2022-08-05T23:10:59.023Z,20.3
2022-08-05T23:12:59.008Z,20.1
2022-08-05T23:14:59.747Z,20.2
2022-08-05T23:16:58.988Z,20.3
2022-08-05T23:18:59.000Z,20.2
2022-08-05T23:20:58.983Z,20.3
2022-08-05T23:22:59.108Z,20.2
2022-08-05T23:24:58.996Z,19.9
2022-08-05T23:26:58.990Z,20
2022-08-05T23:28:59.392Z,20
2022-08-05T23:31:02.187Z,20
2022-08-05T23:32:59.000Z,19.5
2022-08-05T23:34:58.994Z,19.4
2022-08-05T23:36:59.754Z,19.1
2022-08-05T23:38:59.008Z,18.9
2022-08-05T23:40:58.993Z,18.7
2022-08-05T23:42:59.026Z,18.5
2022-08-05T23:44:59.019Z,18.6
2022-08-05T23:46:59.032Z,18.8
2022-08-05T23:49:02.011Z,18.8
2022-08-05T23:50:59.742Z,18.6
2022-08-05T23:52:58.990Z,18.6
2022-08-05T23:54:59.021Z,18.7
2022-08-05T23:57:03.615Z,18.8
2022-08-05T23:59:00.939Z,18.8
